Time;durP1;ratioP1;P1;durP2;ratioP2;P2;SDS_P1;SDS_P2;PMS_P1;PMS_P2;Temp;Humidity;BMP_temperature;BMP_pressure;BME280_temperature;BME280_humidity;BME280_pressure;Samples;Min_cycle;Max_cycle;Signal;HPM_P1;HPM_P2
2022/01/19 00:02:24;;;;;;;0.57;0.57;;;-1.90;99.90;;;;;;5273457;28;20204;-71
2022/01/19 00:04:57;;;;;;;0.50;0.50;;;-1.80;99.90;;;;;;5259888;28;20084;-71
2022/01/19 00:07:28;;;;;;;0.40;0.40;;;-1.80;99.90;;;;;;5264759;28;20325;-71
2022/01/19 00:10:05;;;;;;;0.50;0.50;;;-1.70;99.90;;;;;;5263284;28;20043;-72
2022/01/19 00:12:38;;;;;;;0.50;0.50;;;-1.60;99.90;;;;;;5247457;28;20032;-72
2022/01/19 00:15:17;;;;;;;0.40;0.40;;;-1.60;99.90;;;;;;5264305;28;20028;-72
2022/01/19 00:17:54;;;;;;;1.47;1.37;;;-1.60;99.90;;;;;;5267362;28;20042;-72
2022/01/19 00:20:32;;;;;;;0.40;0.40;;;-1.50;99.90;;;;;;5270761;28;20035;-72
2022/01/19 00:23:11;;;;;;;0.70;0.70;;;-1.60;99.90;;;;;;5264912;28;20038;-73
2022/01/19 00:25:46;;;;;;;0.80;0.80;;;-1.60;99.90;;;;;;5257335;28;20051;-71
2022/01/19 00:28:21;;;;;;;0.50;0.50;;;-1.60;99.90;;;;;;5263489;28;20035;-71
2022/01/19 00:30:55;;;;;;;0.60;0.60;;;-1.70;99.90;;;;;;5262316;28;20044;-71
2022/01/19 00:33:39;;;;;;;0.40;0.40;;;-1.70;99.90;;;;;;5262635;28;20024;-71
2022/01/19 00:36:12;;;;;;;0.40;0.40;;;-1.80;99.90;;;;;;5263810;28;20036;-71
2022/01/19 00:38:43;;;;;;;0.50;0.50;;;-1.90;99.90;;;;;;5263469;28;20024;-71
2022/01/19 00:41:18;;;;;;;0.50;0.50;;;-2.00;99.90;;;;;;5263865;28;20275;-72
2022/01/19 00:43:51;;;;;;;0.40;0.40;;;-1.90;99.90;;;;;;5263295;28;20047;-72
2022/01/19 00:46:22;;;;;;;0.38;0.38;;;-1.90;99.90;;;;;;5263118;28;20024;-71
2022/01/19 00:49:00;;;;;;;0.50;0.50;;;-1.80;99.90;;;;;;5263189;28;20573;-72
2022/01/19 00:51:31;;;;;;;0.50;0.50;;;-1.90;99.90;;;;;;5225099;28;20040;-71
2022/01/19 00:54:07;;;;;;;1.30;1.30;;;-1.90;99.90;;;;;;5261605;28;20170;-71
2022/01/19 00:56:37;;;;;;;0.50;0.50;;;-1.90;99.90;;;;;;5245108;28;20165;-74
2022/01/19 00:59:08;;;;;;;0.50;0.50;;;-2.00;99.90;;;;;;5259795;28;20024;-71
2022/01/19 01:01:47;;;;;;;0.50;0.50;;;-2.00;99.90;;;;;;5243174;28;20040;-71
2022/01/19 01:04:20;;;;;;;0.40;0.40;;;-1.90;99.90;;;;;;5248133;28;20032;-71
2022/01/19 01:06:54;;;;;;;0.40;0.40;;;-1.80;99.90;;;;;;5277384;28;20032;-71
2022/01/19 01:09:31;;;;;;;0.47;0.47;;;-1.50;99.90;;;;;;5228270;28;20047;-72
2022/01/19 01:12:21;;;;;;;0.50;0.50;;;-1.30;99.90;;;;;;5259713;28;20020;-72
2022/01/19 01:20:42;;;;;;;0.50;0.50;;;-1.30;99.90;;;;;;5255494;28;20074;-72
2022/01/19 01:23:14;;;;;;;0.57;0.57;;;-1.40;99.90;;;;;;5262002;28;20035;-72
2022/01/19 01:25:46;;;;;;;1.00;1.00;;;-1.50;99.90;;;;;;5262158;28;20047;-72
2022/01/19 01:28:19;;;;;;;0.47;0.47;;;-1.60;99.90;;;;;;5241250;28;20042;-71
2022/01/19 01:30:54;;;;;;;0.75;0.75;;;-1.70;99.90;;;;;;5262823;28;20394;-71
2022/01/19 01:33:30;;;;;;;0.73;0.73;;;-1.70;99.90;;;;;;5235019;28;20568;-71
2022/01/19 01:36:02;;;;;;;0.40;0.40;;;-1.60;99.90;;;;;;5263028;28;20028;-72
2022/01/19 01:38:33;;;;;;;0.60;0.60;;;-1.60;99.90;;;;;;5244060;28;20479;-72
2022/01/19 01:41:13;;;;;;;0.40;0.40;;;-1.70;99.90;;;;;;5242110;28;20054;-71
2022/01/19 01:43:54;;;;;;;0.52;0.52;;;-1.80;99.90;;;;;;5228566;28;20378;-71
2022/01/19 01:46:42;;;;;;;0.50;0.50;;;-1.80;99.90;;;;;;5262674;28;20031;-71
2022/01/19 01:55:05;;;;;;;0.50;0.50;;;-1.90;99.90;;;;;;5151615;28;20260;-72
2022/01/19 01:57:37;;;;;;;2.97;2.60;;;-1.80;99.90;;;;;;5138499;28;20044;-71
2022/01/19 02:00:17;;;;;;;0.30;0.30;;;-1.80;99.90;;;;;;5125015;28;20493;-71
2022/01/19 02:02:51;;;;;;;0.57;0.57;;;-1.70;99.90;;;;;;5157916;28;20122;-72
2022/01/19 02:05:27;;;;;;;0.40;0.40;;;-1.80;99.90;;;;;;5130407;28;20074;-71
2022/01/19 02:08:19;;;;;;;0.40;0.40;;;-1.90;99.90;;;;;;5146331;28;20062;-71
2022/01/19 02:22:04;;;;;;;9.23;1.53;;;-2.30;99.90;;;;;;5157542;28;20050;-71
2022/01/19 02:24:44;;;;;;;0.40;0.40;;;-2.40;99.90;;;;;;5153747;28;20034;-71
2022/01/19 02:41:29;;;;;;;0.60;0.60;;;-2.60;99.90;;;;;;5263857;28;20031;-72
2022/01/19 02:44:09;;;;;;;0.50;0.50;;;-2.70;99.90;;;;;;5262550;28;20123;-72
2022/01/19 02:49:09;;;;;;;0.40;0.40;;;-2.70;99.90;;;;;;5265985;28;20534;-72
2022/01/19 02:49:34;;;;;;;0.40;0.40;;;-2.70;99.90;;;;;;5266414;28;20027;-72
2022/01/19 02:52:10;;;;;;;0.60;0.60;;;-2.70;99.90;;;;;;5255249;28;20028;-72
2022/01/19 02:54:41;;;;;;;0.50;0.50;;;-2.70;99.90;;;;;;5262033;28;20076;-72
2022/01/19 02:57:13;;;;;;;0.37;0.37;;;-2.80;99.90;;;;;;5264025;28;20047;-72
2022/01/19 03:10:55;;;;;;;0.33;0.33;;;-2.80;99.90;;;;;;5267263;28;20040;-72
2022/01/19 03:13:31;;;;;;;0.40;0.40;;;-2.80;99.90;;;;;;5264947;28;20063;-72
2022/01/19 03:16:10;;;;;;;0.50;0.50;;;-2.80;99.90;;;;;;5246968;28;20043;-72
2022/01/19 03:18:43;;;;;;;0.47;0.47;;;-2.90;99.90;;;;;;5263918;28;20031;-72
2022/01/19 03:21:18;;;;;;;1.98;1.88;;;-3.00;99.90;;;;;;5255704;28;20365;-72
2022/01/19 03:23:52;;;;;;;0.50;0.50;;;-3.00;99.90;;;;;;5264196;28;20094;-72
2022/01/19 03:26:26;;;;;;;0.40;0.40;;;-3.00;99.90;;;;;;5263379;28;20030;-72
2022/01/19 03:28:59;;;;;;;0.60;0.60;;;-2.90;99.90;;;;;;5246410;28;20047;-72
2022/01/19 03:31:35;;;;;;;0.60;0.60;;;-3.00;99.90;;;;;;5247698;28;20623;-72
2022/01/19 03:34:06;;;;;;;0.50;0.50;;;-3.00;99.90;;;;;;5264672;28;20035;-72
2022/01/19 03:36:42;;;;;;;0.40;0.40;;;-3.10;99.90;;;;;;5263325;28;20036;-72
2022/01/19 03:39:13;;;;;;;0.50;0.50;;;-3.10;99.90;;;;;;5264298;28;20068;-72
2022/01/19 03:41:47;;;;;;;0.60;0.60;;;-3.10;99.90;;;;;;5247817;28;20146;-72
2022/01/19 03:44:20;;;;;;;0.40;0.40;;;-3.20;99.90;;;;;;5279078;28;20036;-72
2022/01/19 03:47:04;;;;;;;0.55;0.55;;;-3.20;99.90;;;;;;5243651;28;20065;-72
2022/01/19 03:49:37;;;;;;;0.43;0.43;;;-3.10;99.90;;;;;;5265454;28;20055;-72
2022/01/19 03:52:10;;;;;;;0.60;0.60;;;-2.90;99.90;;;;;;5262291;28;20067;-72
2022/01/19 03:54:43;;;;;;;0.47;0.47;;;-2.90;99.90;;;;;;5267445;28;20060;-72
2022/01/19 03:57:15;;;;;;;0.50;0.50;;;-2.90;99.90;;;;;;5264826;28;20036;-72
2022/01/19 03:59:53;;;;;;;0.50;0.50;;;-2.90;99.90;;;;;;5265089;28;20338;-72
2022/01/19 04:02:29;;;;;;;0.40;0.40;;;-2.90;99.90;;;;;;5267101;28;20057;-72
2022/01/19 04:05:10;;;;;;;0.40;0.40;;;-3.00;99.90;;;;;;5248762;28;20051;-72
2022/01/19 04:07:43;;;;;;;0.40;0.40;;;-2.90;99.90;;;;;;5256164;28;20032;-72
2022/01/19 04:10:14;;;;;;;0.50;0.50;;;-2.80;99.90;;;;;;5264310;28;20026;-72
2022/01/19 04:12:52;;;;;;;0.50;0.50;;;-2.90;99.90;;;;;;5264225;28;20241;-72
2022/01/19 04:15:24;;;;;;;0.50;0.50;;;-2.90;99.90;;;;;;5268437;28;20264;-72
2022/01/19 04:17:54;;;;;;;0.50;0.50;;;-2.90;99.90;;;;;;5264721;28;20036;-72
2022/01/19 04:20:26;;;;;;;0.50;0.50;;;-3.00;99.90;;;;;;5272944;27;20046;-71
2022/01/19 04:23:00;;;;;;;1.03;1.03;;;-2.90;99.90;;;;;;5263927;28;20121;-72
2022/01/19 04:25:33;;;;;;;0.40;0.40;;;-2.90;99.90;;;;;;5270323;28;20034;-72
2022/01/19 04:28:07;;;;;;;0.50;0.50;;;-2.90;99.90;;;;;;5264767;28;20058;-71
2022/01/19 04:30:39;;;;;;;;;;;-3.00;99.90;;;;;;5256203;28;20028;-71
2022/01/19 04:33:19;;;;;;;0.50;0.50;;;-3.10;99.90;;;;;;5270398;28;19928;-72
2022/01/19 04:35:52;;;;;;;0.50;0.50;;;-2.90;99.90;;;;;;5262625;28;20039;-72
2022/01/19 05:04:10;;;;;;;0.40;0.40;;;-3.00;99.90;;;;;;5262801;28;20024;-71
2022/01/19 05:06:51;;;;;;;0.50;0.50;;;-3.10;99.90;;;;;;5247702;28;20437;-71
2022/01/19 05:14:54;;;;;;;0.40;0.40;;;-3.30;99.90;;;;;;5262301;28;20039;-72
2022/01/19 05:17:30;;;;;;;2.80;1.63;;;-3.20;99.90;;;;;;5261710;28;20029;-72
2022/01/19 05:20:04;;;;;;;0.50;0.50;;;-3.10;99.90;;;;;;5262421;28;20059;-72
2022/01/19 05:22:38;;;;;;;;;;;-3.10;99.90;;;;;;5262711;28;20050;-72
2022/01/19 05:25:14;;;;;;;0.50;0.50;;;-3.20;99.90;;;;;;5262039;28;19962;-71
2022/01/19 05:27:50;;;;;;;0.50;0.50;;;-3.20;99.90;;;;;;5262213;28;20047;-72
2022/01/19 05:30:22;;;;;;;0.50;0.50;;;-3.20;99.90;;;;;;5244580;28;20024;-71
2022/01/19 05:32:52;;;;;;;0.50;0.50;;;-3.30;99.90;;;;;;5268374;28;20040;-71
2022/01/19 05:35:27;;;;;;;0.40;0.40;;;-3.40;99.90;;;;;;5259868;28;20093;-71
2022/01/19 05:38:01;;;;;;;0.50;0.50;;;-3.50;99.90;;;;;;5260267;28;20032;-71
2022/01/19 05:40:37;;;;;;;0.40;0.40;;;-3.50;99.90;;;;;;5276392;28;20099;-72
2022/01/19 05:43:10;;;;;;;0.57;0.57;;;-3.40;99.90;;;;;;5260472;28;20032;-72
2022/01/19 05:45:43;;;;;;;0.50;0.50;;;-3.50;99.90;;;;;;5258284;28;20036;-72
2022/01/19 05:48:17;;;;;;;0.70;0.70;;;-3.40;99.90;;;;;;5261354;28;20031;-72
2022/01/19 05:50:48;;;;;;;0.40;0.40;;;-3.50;99.90;;;;;;5276058;28;20306;-72
2022/01/19 05:53:27;;;;;;;0.57;0.57;;;-3.50;99.90;;;;;;5260178;28;20039;-71
2022/01/19 05:56:01;;;;;;;0.50;0.50;;;-3.50;99.90;;;;;;5251977;28;20052;-72
2022/01/19 05:58:31;;;;;;;0.57;0.57;;;-3.50;99.90;;;;;;5245074;28;20028;-72
2022/01/19 06:01:07;;;;;;;0.43;0.43;;;-3.50;99.90;;;;;;5256970;28;20583;-72
2022/01/19 06:03:38;;;;;;;0.57;0.57;;;-3.50;99.90;;;;;;5261779;28;20115;-71
2022/01/19 06:06:13;;;;;;;0.50;0.50;;;-3.50;99.90;;;;;;5251955;28;20259;-72
2022/01/19 06:09:00;;;;;;;0.50;0.50;;;-3.50;99.90;;;;;;5258471;28;20028;-71
2022/01/19 06:11:31;;;;;;;0.67;0.67;;;-3.60;99.90;;;;;;5213644;28;20086;-71
2022/01/19 06:14:06;;;;;;;0.50;0.50;;;-3.60;99.90;;;;;;5263242;28;20530;-71
2022/01/19 06:16:41;;;;;;;0.40;0.40;;;-3.60;99.90;;;;;;5261176;28;20032;-71
2022/01/19 06:19:13;;;;;;;;;;;-3.60;99.90;;;;;;5262078;28;20031;-71
2022/01/19 06:21:44;;;;;;;0.60;0.60;;;-3.60;99.90;;;;;;5257739;28;19924;-71
2022/01/19 06:24:20;;;;;;;0.40;0.40;;;-3.60;99.90;;;;;;5261544;28;20474;-71
2022/01/19 06:26:51;;;;;;;0.40;0.40;;;-3.60;99.90;;;;;;5237337;28;20036;-72
2022/01/19 06:29:24;;;;;;;0.50;0.50;;;-3.60;99.90;;;;;;5258968;28;20078;-72
2022/01/19 06:31:55;;;;;;;0.50;0.50;;;-3.60;99.90;;;;;;5258194;28;20079;-72
2022/01/19 06:34:31;;;;;;;0.40;0.40;;;-3.50;99.90;;;;;;5268844;28;20031;-72
2022/01/19 06:37:02;;;;;;;0.40;0.40;;;-3.50;99.90;;;;;;5259894;28;20047;-72
2022/01/19 06:39:33;;;;;;;0.50;0.50;;;-3.40;99.90;;;;;;5261642;28;20031;-71
2022/01/19 06:42:05;;;;;;;0.63;0.63;;;-3.40;99.90;;;;;;5273292;28;20524;-71
2022/01/19 06:44:41;;;;;;;0.50;0.50;;;-3.40;99.90;;;;;;5260927;28;20044;-73
2022/01/19 06:47:12;;;;;;;0.70;0.70;;;-3.50;99.90;;;;;;5263261;28;20032;-72
2022/01/19 06:49:45;;;;;;;1.23;1.23;;;-3.50;99.90;;;;;;5262833;28;20475;-72
2022/01/19 06:52:19;;;;;;;0.40;0.40;;;-3.40;99.90;;;;;;5262374;28;20082;-72
2022/01/19 06:54:52;;;;;;;0.60;0.60;;;-3.40;99.90;;;;;;5261087;28;20032;-72
2022/01/19 06:57:23;;;;;;;0.40;0.40;;;-3.50;99.90;;;;;;5257404;28;20399;-72
2022/01/19 06:59:56;;;;;;;0.50;0.50;;;-3.60;99.90;;;;;;5259615;28;20329;-72
2022/01/19 07:02:32;;;;;;;0.80;0.80;;;-3.60;99.90;;;;;;5265122;28;20433;-72
2022/01/19 07:05:05;;;;;;;0.60;0.60;;;-3.50;99.90;;;;;;5269344;28;20356;-72
2022/01/19 07:07:37;;;;;;;0.50;0.50;;;-3.50;99.90;;;;;;5265254;28;20039;-72
2022/01/19 07:10:11;;;;;;;0.60;0.60;;;-3.30;99.90;;;;;;5249039;28;20039;-72
2022/01/19 07:12:47;;;;;;;0.63;0.63;;;-3.20;99.90;;;;;;5266605;28;20040;-72
2022/01/19 07:15:20;;;;;;;0.40;0.40;;;-3.10;99.90;;;;;;5246774;28;20039;-71
2022/01/19 07:17:55;;;;;;;0.40;0.40;;;-3.10;99.90;;;;;;5267221;28;20073;-71
2022/01/19 07:20:26;;;;;;;0.50;0.50;;;-2.90;99.90;;;;;;5246129;28;20032;-72
2022/01/19 07:23:01;;;;;;;0.60;0.60;;;-2.70;99.90;;;;;;5255510;28;20150;-72
2022/01/19 07:25:32;;;;;;;0.50;0.50;;;-2.60;99.90;;;;;;5240377;28;20245;-71
2022/01/19 07:28:08;;;;;;;0.40;0.40;;;-2.60;99.90;;;;;;5251845;28;20040;-71
2022/01/19 07:30:39;;;;;;;0.70;0.70;;;-2.60;99.90;;;;;;5266639;28;20530;-71
2022/01/19 07:33:12;;;;;;;0.50;0.50;;;-2.50;99.90;;;;;;5284642;27;20063;-71
2022/01/19 07:35:50;;;;;;;0.40;0.40;;;-2.40;99.90;;;;;;5219515;28;20424;-71
2022/01/19 07:38:24;;;;;;;0.50;0.50;;;-2.20;99.90;;;;;;5260398;28;20035;-71
2022/01/19 07:40:55;;;;;;;0.50;0.50;;;-1.90;99.90;;;;;;5245272;28;20032;-72
2022/01/19 07:43:27;;;;;;;0.53;0.53;;;-1.70;99.90;;;;;;5260727;28;20036;-71
2022/01/19 07:46:01;;;;;;;0.40;0.40;;;-1.60;99.90;;;;;;5229309;28;20023;-73
2022/01/19 07:48:32;;;;;;;0.60;0.60;;;-1.60;99.90;;;;;;5263921;28;20028;-70
2022/01/19 07:51:03;;;;;;;1.07;1.07;;;-1.70;99.90;;;;;;5262553;28;20110;-73
2022/01/19 07:53:40;;;;;;;0.40;0.40;;;-1.70;99.90;;;;;;5229640;28;20039;-73
2022/01/19 07:56:11;;;;;;;2.10;2.00;;;-1.60;99.90;;;;;;5257383;28;20091;-73
2022/01/19 07:58:42;;;;;;;0.40;0.40;;;-1.50;99.90;;;;;;5263070;28;20422;-73
2022/01/19 08:01:21;;;;;;;0.93;0.93;;;-1.40;99.90;;;;;;5246332;28;20231;-73
2022/01/19 08:03:57;;;;;;;0.60;0.60;;;-1.40;99.90;;;;;;5263811;28;20035;-73
2022/01/19 08:06:30;;;;;;;0.50;0.50;;;-1.30;99.90;;;;;;5254322;28;20047;-73
2022/01/19 08:09:07;;;;;;;4.80;0.93;;;-1.20;99.90;;;;;;5244656;28;20052;-73
2022/01/19 08:11:40;;;;;;;0.97;0.97;;;-1.00;99.90;;;;;;5246383;28;20050;-73
2022/01/19 08:14:11;;;;;;;1.23;1.23;;;-0.90;99.90;;;;;;5263147;28;20504;-73
2022/01/19 08:16:45;;;;;;;0.50;0.50;;;-0.90;99.90;;;;;;5247960;28;20479;-73
2022/01/19 08:19:21;;;;;;;1.20;1.20;;;-0.90;99.90;;;;;;5266874;28;20020;-73
2022/01/19 08:21:54;;;;;;;0.50;0.50;;;-0.80;99.90;;;;;;5222819;28;20047;-73
2022/01/19 08:24:25;;;;;;;0.50;0.50;;;-0.60;99.90;;;;;;5264355;28;20024;-73
2022/01/19 08:27:03;;;;;;;0.50;0.50;;;-0.30;99.90;;;;;;5245452;28;20042;-73
2022/01/19 08:29:35;;;;;;;0.40;0.40;;;-0.10;99.90;;;;;;5261044;28;20028;-74
2022/01/19 08:32:09;;;;;;;0.40;0.40;;;0.30;99.90;;;;;;5239530;28;20622;-73
2022/01/19 08:34:41;;;;;;;1.55;1.52;;;0.30;99.90;;;;;;5227528;28;20080;-74
2022/01/19 08:37:15;;;;;;;0.70;0.70;;;0.40;99.90;;;;;;5262500;28;20043;-73
2022/01/19 08:39:46;;;;;;;0.70;0.70;;;0.70;99.90;;;;;;5244670;28;20032;-73
2022/01/19 08:42:20;;;;;;;1.00;1.00;;;0.60;99.90;;;;;;5276919;27;20044;-73
2022/01/19 08:44:54;;;;;;;1.13;1.13;;;0.60;99.90;;;;;;5274502;28;20559;-74
2022/01/19 08:47:28;;;;;;;1.48;1.48;;;0.70;99.90;;;;;;5275271;27;20032;-73
2022/01/19 08:50:07;;;;;;;;;;;1.00;99.90;;;;;;5261965;28;20063;-73
2022/01/19 08:52:42;;;;;;;0.50;0.50;;;1.40;99.90;;;;;;5268797;28;20413;-75
2022/01/19 08:55:17;;;;;;;0.45;0.45;;;1.60;99.90;;;;;;5242840;28;20032;-72
2022/01/19 08:57:51;;;;;;;0.63;0.63;;;1.90;99.90;;;;;;5279836;28;20321;-72
2022/01/19 09:00:30;;;;;;;0.50;0.50;;;2.00;99.90;;;;;;5245333;28;20036;-71
2022/01/19 09:03:06;;;;;;;0.60;0.60;;;2.20;99.90;;;;;;5242983;28;20040;-72
2022/01/19 09:05:39;;;;;;;1.13;1.13;;;2.30;99.90;;;;;;5269441;27;20059;-72
2022/01/19 09:08:12;;;;;;;0.50;0.50;;;2.50;99.90;;;;;;5231054;28;20093;-72
2022/01/19 09:10:45;;;;;;;0.60;0.60;;;2.70;99.90;;;;;;5244321;28;20043;-72
2022/01/19 09:13:17;;;;;;;0.70;0.70;;;2.70;99.90;;;;;;5261550;28;20024;-73
2022/01/19 09:15:49;;;;;;;0.60;0.60;;;3.10;99.90;;;;;;5280996;27;20081;-72
2022/01/19 09:18:20;;;;;;;0.80;0.80;;;3.40;99.90;;;;;;5237403;28;20048;-72
2022/01/19 09:20:53;;;;;;;0.65;0.65;;;3.30;99.90;;;;;;5242957;28;20043;-72
2022/01/19 09:23:28;;;;;;;0.57;0.57;;;3.50;99.90;;;;;;5262705;28;20024;-72
2022/01/19 09:26:01;;;;;;;1.98;1.40;;;3.50;99.90;;;;;;5229154;28;20267;-72
2022/01/19 09:28:32;;;;;;;0.82;0.82;;;3.50;99.90;;;;;;5263152;28;20055;-72
2022/01/19 09:31:11;;;;;;;0.60;0.60;;;3.50;99.90;;;;;;5262783;28;20028;-73
2022/01/19 09:33:52;;;;;;;0.45;0.45;;;3.40;99.90;;;;;;5261196;28;20534;-73
2022/01/19 09:39:00;;;;;;;3.03;1.55;;;2.80;99.90;;;;;;5261914;28;20234;-73
2022/01/19 09:41:32;;;;;;;0.60;0.60;;;2.90;99.90;;;;;;5227869;28;20055;-74
2022/01/19 09:44:08;;;;;;;0.75;0.75;;;3.10;99.90;;;;;;5244700;28;20046;-74
2022/01/19 09:46:43;;;;;;;0.50;0.50;;;3.50;99.90;;;;;;5260696;28;20036;-74
2022/01/19 09:49:19;;;;;;;0.40;0.40;;;3.30;99.90;;;;;;5261386;28;20415;-74
2022/01/19 09:51:54;;;;;;;0.63;0.63;;;3.90;99.90;;;;;;5253690;28;20111;-74
2022/01/19 09:54:31;;;;;;;1.60;1.55;;;3.80;99.90;;;;;;5246079;28;20041;-75
2022/01/19 09:57:05;;;;;;;1.00;1.00;;;4.00;99.90;;;;;;5260258;28;20386;-76
2022/01/19 09:59:38;;;;;;;0.60;0.60;;;4.20;99.90;;;;;;5275944;28;20028;-76
2022/01/19 10:02:12;;;;;;;0.85;0.85;;;4.40;99.90;;;;;;5256480;28;20040;-75
2022/01/19 10:04:47;;;;;;;0.60;0.60;;;4.60;99.90;;;;;;5219280;28;20055;-76
2022/01/19 10:07:25;;;;;;;0.50;0.50;;;4.60;99.90;;;;;;5268253;28;20333;-76
2022/01/19 10:10:27;;;;;;;0.50;0.50;;;4.90;99.90;;;;;;5242947;28;20020;-77
2022/01/19 10:19:20;;;;;;;0.82;0.82;;;6.00;99.90;;;;;;5241787;28;20032;-76
2022/01/19 10:21:56;;;;;;;3.28;3.00;;;5.50;99.90;;;;;;5283375;27;20087;-76
2022/01/19 10:24:51;;;;;;;1.00;1.00;;;6.00;99.90;;;;;;5225451;28;20039;-77
2022/01/19 10:27:35;;;;;;;2.15;2.05;;;6.80;99.90;;;;;;5269435;28;20124;-75
2022/01/19 10:30:08;;;;;;;0.68;0.68;;;6.30;99.90;;;;;;5241301;28;20568;-74
2022/01/19 10:33:02;;;;;;;0.60;0.60;;;5.90;99.90;;;;;;5259504;28;20071;-75
2022/01/19 10:35:38;;;;;;;0.63;0.63;;;6.30;99.90;;;;;;5208248;28;20300;-73
2022/01/19 10:38:19;;;;;;;0.60;0.60;;;6.50;99.90;;;;;;5256953;28;20094;-74
2022/01/19 10:40:55;;;;;;;0.75;0.75;;;7.10;99.90;;;;;;5260609;28;20028;-74
2022/01/19 10:43:34;;;;;;;0.80;0.80;;;8.00;99.90;;;;;;5260554;28;20094;-74
2022/01/19 10:46:46;;;;;;;0.50;0.50;;;8.50;99.90;;;;;;5260160;28;20527;-74
2022/01/19 10:49:17;;;;;;;3.30;2.47;;;8.40;99.90;;;;;;5171427;28;20069;-73
2022/01/19 10:51:55;;;;;;;0.70;0.70;;;8.60;99.90;;;;;;5174042;28;20029;-74
2022/01/19 10:54:30;;;;;;;0.63;0.63;;;8.60;99.90;;;;;;5160809;28;20065;-74
2022/01/19 10:57:15;;;;;;;0.90;0.90;;;7.50;99.90;;;;;;5168727;28;20030;-74
2022/01/19 10:59:47;;;;;;;0.70;0.70;;;6.90;99.90;;;;;;5150484;28;20684;-74
2022/01/19 11:02:20;;;;;;;0.70;0.70;;;8.00;99.90;;;;;;5164733;28;20069;-74
2022/01/19 11:04:56;;;;;;;0.80;0.80;;;6.60;99.90;;;;;;5158139;28;20088;-74
2022/01/19 11:07:27;;;;;;;3.90;3.40;;;7.10;99.90;;;;;;5162507;28;20046;-73
2022/01/19 11:10:08;;;;;;;1.20;1.10;;;6.90;99.90;;;;;;5178791;28;20045;-74
2022/01/19 11:12:47;;;;;;;0.85;0.85;;;7.40;99.90;;;;;;5166090;28;20130;-73
2022/01/19 11:15:20;;;;;;;0.65;0.65;;;7.60;99.90;;;;;;5183394;28;20185;-74
2022/01/19 11:17:57;;;;;;;0.60;0.60;;;8.50;99.90;;;;;;5169235;28;20030;-74
2022/01/19 11:20:28;;;;;;;1.05;1.05;;;8.30;99.90;;;;;;5224924;28;20509;-73
2022/01/19 11:23:20;;;;;;;0.50;0.50;;;8.00;99.90;;;;;;5245690;28;20493;-73
2022/01/19 11:26:00;;;;;;;1.40;1.40;;;8.80;99.90;;;;;;5228685;28;20447;-74
2022/01/19 11:28:38;;;;;;;0.88;0.88;;;10.10;99.90;;;;;;5244472;28;20055;-73
2022/01/19 11:31:22;;;;;;;1.30;1.30;;;9.60;99.90;;;;;;5243638;28;20059;-73
2022/01/19 11:33:58;;;;;;;0.57;0.57;;;7.70;99.90;;;;;;5261786;28;20051;-73
2022/01/19 11:36:36;;;;;;;0.63;0.63;;;7.20;99.90;;;;;;5245366;28;20024;-74
2022/01/19 11:39:21;;;;;;;0.60;0.60;;;8.20;99.90;;;;;;5263109;28;20085;-73
2022/01/19 11:42:01;;;;;;;0.95;0.95;;;7.50;99.90;;;;;;5228580;28;20048;-73
2022/01/19 11:44:35;;;;;;;1.05;1.05;;;8.70;99.90;;;;;;5257848;28;20032;-73
2022/01/19 11:47:21;;;;;;;0.80;0.80;;;10.10;99.90;;;;;;5259974;28;20042;-73
2022/01/19 11:50:00;;;;;;;0.77;0.77;;;9.00;99.90;;;;;;5244289;28;20137;-73
2022/01/19 11:52:43;;;;;;;1.35;1.35;;;8.70;99.90;;;;;;5275726;28;20032;-73
2022/01/19 11:55:24;;;;;;;1.00;1.00;;;9.50;99.90;;;;;;5255593;28;20032;-73
2022/01/19 11:58:20;;;;;;;0.70;0.70;;;9.90;99.90;;;;;;5225458;28;20036;-73
2022/01/19 12:00:56;;;;;;;1.10;1.10;;;9.00;99.90;;;;;;5258149;28;20031;-73
2022/01/19 12:03:42;;;;;;;0.73;0.73;;;8.90;99.90;;;;;;5262740;28;20111;-73
2022/01/19 12:06:36;;;;;;;1.38;1.38;;;8.70;99.90;;;;;;5233641;28;20055;-73
2022/01/19 12:09:09;;;;;;;1.35;1.35;;;9.00;99.90;;;;;;5269276;28;20043;-73
2022/01/19 12:11:51;;;;;;;1.00;1.00;;;10.20;99.90;;;;;;5263565;28;20099;-73
2022/01/19 12:14:38;;;;;;;1.05;1.05;;;10.40;99.90;;;;;;5243076;28;20047;-73
2022/01/19 12:17:26;;;;;;;1.27;1.05;;;10.80;99.90;;;;;;5260878;28;20146;-73
2022/01/19 12:20:01;;;;;;;1.23;1.23;;;8.90;99.90;;;;;;5254680;28;20047;-74
2022/01/19 12:22:34;;;;;;;1.85;1.70;;;9.40;99.90;;;;;;5229167;28;20032;-74
2022/01/19 12:25:11;;;;;;;0.90;0.90;;;8.50;99.90;;;;;;5268975;28;20133;-73
2022/01/19 12:27:50;;;;;;;0.70;0.70;;;9.40;99.90;;;;;;5266065;28;20047;-73
2022/01/19 12:30:31;;;;;;;1.45;1.35;;;9.70;99.90;;;;;;5244895;28;20024;-73
2022/01/19 12:33:07;;;;;;;0.70;0.70;;;10.60;99.90;;;;;;5253922;28;20023;-73
2022/01/19 12:35:39;;;;;;;0.90;0.90;;;10.90;99.90;;;;;;5246779;28;20063;-73
2022/01/19 12:38:24;;;;;;;0.77;0.77;;;11.00;99.90;;;;;;5248477;28;20356;-74
2022/01/19 12:41:01;;;;;;;1.80;1.70;;;10.60;99.90;;;;;;5238879;28;20028;-73
2022/01/19 12:43:44;;;;;;;1.20;1.20;;;10.60;99.90;;;;;;5245736;28;20233;-73
2022/01/19 12:46:18;;;;;;;2.83;2.63;;;11.10;99.90;;;;;;5246037;28;20024;-74
2022/01/19 12:48:49;;;;;;;1.50;1.50;;;11.70;99.90;;;;;;5252783;28;20056;-74
2022/01/19 12:51:57;;;;;;;1.15;1.15;;;11.30;99.90;;;;;;5244878;28;20309;-74
2022/01/19 12:54:32;;;;;;;0.98;0.98;;;9.80;99.90;;;;;;5216223;28;20041;-73
2022/01/19 12:57:04;;;;;;;1.83;1.73;;;9.30;99.90;;;;;;5205647;28;20075;-74
2022/01/19 12:59:36;;;;;;;1.10;1.10;;;10.60;99.90;;;;;;5200523;28;20040;-74
2022/01/19 13:02:12;;;;;;;0.85;0.85;;;10.60;99.90;;;;;;5220664;28;20032;-74
2022/01/19 13:04:51;;;;;;;2.25;2.15;;;11.30;99.90;;;;;;5209131;28;20048;-74
2022/01/19 13:07:27;;;;;;;1.50;1.42;;;11.10;99.90;;;;;;5218756;28;20060;-74
2022/01/19 13:13:06;;;;;;;0.73;0.73;;;12.60;99.90;;;;;;5200098;28;20044;-74
2022/01/19 13:15:59;;;;;;;1.00;1.00;;;11.40;99.90;;;;;;5205910;28;20106;-73
2022/01/19 13:18:43;;;;;;;1.20;1.20;;;11.80;99.90;;;;;;5217301;28;20029;-74
2022/01/19 13:21:25;;;;;;;1.30;1.25;;;11.60;99.90;;;;;;5217788;28;20037;-74
2022/01/19 13:24:11;;;;;;;0.60;0.60;;;9.70;99.90;;;;;;5197540;28;20076;-74
2022/01/19 13:26:57;;;;;;;0.80;0.80;;;10.30;99.90;;;;;;5201099;28;20581;-75
2022/01/19 13:29:39;;;;;;;0.90;0.90;;;10.00;99.90;;;;;;5230664;28;20040;-74
2022/01/19 13:32:21;;;;;;;3.33;1.75;;;11.00;99.90;;;;;;5235496;28;20044;-75
2022/01/19 13:35:04;;;;;;;1.25;1.25;;;12.00;99.90;;;;;;5243780;28;20040;-75
2022/01/19 13:37:54;;;;;;;1.00;1.00;;;11.30;99.90;;;;;;5261060;28;20089;-75
2022/01/19 13:40:36;;;;;;;1.88;1.35;;;11.50;99.90;;;;;;5254143;28;20082;-75
2022/01/19 13:43:16;;;;;;;2.00;1.90;;;11.70;99.90;;;;;;5259128;28;20063;-74
2022/01/19 13:45:50;;;;;;;2.05;1.95;;;12.60;99.90;;;;;;5243988;28;20036;-75
2022/01/19 13:48:31;;;;;;;0.85;0.85;;;12.70;99.90;;;;;;5277947;28;20032;-74
2022/01/19 13:51:07;;;;;;;1.27;1.27;;;12.90;99.90;;;;;;5242979;28;20040;-75
2022/01/19 13:53:43;;;;;;;0.75;0.75;;;13.80;99.90;;;;;;5260344;28;20031;-75
2022/01/19 13:56:24;;;;;;;1.52;1.52;;;13.60;99.90;;;;;;5260219;28;20035;-75
2022/01/19 13:59:08;;;;;;;1.15;1.15;;;13.00;99.90;;;;;;5258941;28;20392;-74
2022/01/19 14:01:57;;;;;;;1.42;1.42;;;12.70;99.90;;;;;;5259305;28;20117;-74
2022/01/19 14:04:34;;;;;;;1.02;1.02;;;12.30;99.90;;;;;;5252207;28;20032;-76
2022/01/19 14:07:16;;;;;;;1.48;1.38;;;12.80;99.90;;;;;;5269198;28;20052;-74
2022/01/19 14:09:49;;;;;;;1.35;1.35;;;12.50;99.90;;;;;;5264251;28;20078;-74
2022/01/19 14:12:27;;;;;;;1.63;1.63;;;11.70;99.90;;;;;;5210947;28;20032;-73
2022/01/19 14:15:02;;;;;;;2.13;1.98;;;11.40;99.90;;;;;;5262804;28;20276;-73
2022/01/19 14:17:40;;;;;;;1.10;1.10;;;10.90;99.90;;;;;;5262877;28;20028;-74
2022/01/19 14:20:22;;;;;;;1.85;1.75;;;10.40;99.90;;;;;;5242299;28;20131;-73
2022/01/19 14:23:08;;;;;;;0.80;0.80;;;9.30;99.90;;;;;;5259459;28;20413;-74
2022/01/19 14:25:43;;;;;;;0.85;0.85;;;8.60;99.90;;;;;;5246284;28;20341;-74
2022/01/19 14:28:16;;;;;;;1.58;1.58;;;7.90;99.90;;;;;;5244676;28;20128;-75
2022/01/19 14:31:04;;;;;;;1.38;1.30;;;7.30;99.90;;;;;;5244342;28;20044;-74
2022/01/19 14:33:48;;;;;;;0.63;0.63;;;6.60;99.90;;;;;;5248889;28;20027;-74
2022/01/19 14:36:26;;;;;;;0.80;0.80;;;6.00;99.90;;;;;;5243453;28;20345;-75
2022/01/19 14:39:01;;;;;;;0.82;0.82;;;5.60;99.90;;;;;;5242565;28;20050;-73
2022/01/19 14:41:37;;;;;;;1.10;1.10;;;5.30;99.90;;;;;;5240299;28;20043;-74
2022/01/19 14:44:29;;;;;;;1.55;1.45;;;5.10;99.90;;;;;;5244709;28;20472;-74
2022/01/19 14:47:15;;;;;;;5.47;2.42;;;4.90;99.90;;;;;;5261392;28;20024;-74
2022/01/19 14:49:46;;;;;;;0.95;0.95;;;4.80;99.90;;;;;;5242707;28;20032;-74
2022/01/19 14:52:17;;;;;;;0.50;0.50;;;4.60;99.90;;;;;;5226303;28;20044;-77
2022/01/19 14:54:56;;;;;;;0.80;0.80;;;4.50;99.90;;;;;;5243393;28;20618;-73
2022/01/19 14:57:26;;;;;;;0.88;0.88;;;4.40;99.90;;;;;;5246500;28;20463;-75
2022/01/19 15:00:00;;;;;;;0.55;0.55;;;4.30;99.90;;;;;;5260502;28;20032;-73
2022/01/19 15:02:36;;;;;;;0.40;0.40;;;4.20;99.90;;;;;;5256097;28;20104;-74
2022/01/19 15:05:08;;;;;;;0.70;0.70;;;4.20;99.90;;;;;;5249795;28;20057;-73
2022/01/19 15:07:41;;;;;;;1.15;1.15;;;4.10;99.90;;;;;;5253256;28;20036;-74
2022/01/19 15:10:15;;;;;;;1.95;1.83;;;4.00;99.90;;;;;;5250037;28;20574;-73